createdAt,value
2022-08-01T00:00:09.992Z,0.80
2022-08-01T00:02:41.709Z,1.07
2022-08-01T00:05:09.446Z,1.23
2022-08-01T00:07:36.596Z,1.20
2022-08-01T00:10:10.742Z,0.70
2022-08-01T00:12:37.893Z,1.00
2022-08-01T00:15:06.547Z,0.80
2022-08-01T00:17:33.799Z,0.70
2022-08-01T00:20:00.780Z,1.07
2022-08-01T00:22:27.720Z,0.80
2022-08-01T00:24:54.641Z,0.70
2022-08-01T00:27:21.545Z,0.60
2022-08-01T00:30:10.002Z,0.80
2022-08-01T00:32:35.299Z,0.50
2022-08-01T00:35:02.203Z,0.50
2022-08-01T00:37:29.256Z,0.57
2022-08-01T00:39:56.203Z,0.50
2022-08-01T00:42:23.333Z,0.60
2022-08-01T00:44:50.232Z,0.70
2022-08-01T00:47:17.156Z,1.10
2022-08-01T00:49:44.392Z,0.90
2022-08-01T00:52:11.664Z,1.03
2022-08-01T00:54:39.384Z,1.10
2022-08-01T00:57:09.857Z,0.80
2022-08-01T00:59:39.775Z,0.87
2022-08-01T01:02:15.449Z,1.27
2022-08-01T01:04:43.572Z,1.43
2022-08-01T01:07:19.232Z,1.10
2022-08-01T01:09:58.730Z,1.20
2022-08-01T01:12:50.475Z,0.87
2022-08-01T01:15:37.200Z,1.33
2022-08-01T01:18:09.163Z,1.10
2022-08-01T01:20:44.586Z,0.90
2022-08-01T01:23:30.332Z,0.90
2022-08-01T01:26:15.301Z,1.00
2022-08-01T01:29:03.274Z,0.80
2022-08-01T01:31:37.109Z,0.67
2022-08-01T01:34:05.655Z,0.90
2022-08-01T01:36:34.899Z,0.70
2022-08-01T01:39:02.183Z,0.90
2022-08-01T01:41:29.643Z,1.00
2022-08-01T01:43:57.398Z,1.87
2022-08-01T01:46:28.121Z,1.10
2022-08-01T01:48:57.872Z,1.00
2022-08-01T01:51:28.335Z,0.83
2022-08-01T01:53:57.782Z,1.10
2022-08-01T01:56:25.946Z,1.10
2022-08-01T01:58:56.488Z,0.80
2022-08-01T02:01:58.706Z,0.90
2022-08-01T02:04:14.628Z,1.00
2022-08-01T02:06:43.166Z,0.73
2022-08-01T02:09:11.248Z,0.80
2022-08-01T02:11:59.100Z,1.00
2022-08-01T02:14:29.866Z,0.80
2022-08-01T02:16:58.467Z,1.10
2022-08-01T02:19:25.565Z,1.03
2022-08-01T02:22:07.199Z,1.87
2022-08-01T02:24:53.190Z,1.53
2022-08-01T02:27:35.329Z,1.53
2022-08-01T02:30:06.797Z,0.73
2022-08-01T02:32:47.651Z,0.80
2022-08-01T02:35:21.691Z,0.70
2022-08-01T02:37:49.938Z,0.70
2022-08-01T02:40:18.776Z,0.67
2022-08-01T02:42:50.298Z,1.13
2022-08-01T02:45:21.620Z,1.00
2022-08-01T02:47:50.762Z,0.90
2022-08-01T02:50:19.993Z,0.87
2022-08-01T02:52:52.131Z,0.60
2022-08-01T02:55:20.796Z,0.80
2022-08-01T02:57:52.112Z,1.03
2022-08-01T03:00:24.598Z,0.97
2022-08-01T03:02:55.936Z,1.10
2022-08-01T03:05:25.040Z,0.97
2022-08-01T03:07:53.904Z,1.00
2022-08-01T03:10:22.246Z,1.20
2022-08-01T03:12:50.982Z,0.70
2022-08-01T03:15:18.925Z,1.27
2022-08-01T03:17:47.756Z,1.10
2022-08-01T03:20:17.688Z,1.40
2022-08-01T03:22:46.571Z,0.97
2022-08-01T03:25:16.127Z,0.70
2022-08-01T03:27:54.561Z,0.87
2022-08-01T03:30:24.330Z,0.60
2022-08-01T03:32:51.570Z,0.70
2022-08-01T03:35:18.903Z,1.30
2022-08-01T03:38:14.926Z,0.97
2022-08-01T03:40:42.406Z,1.20
2022-08-01T03:43:19.573Z,1.23
2022-08-01T03:45:52.819Z,2.23
2022-08-01T03:48:23.643Z,0.80
2022-08-01T03:50:52.975Z,0.90
2022-08-01T03:53:29.677Z,0.80
2022-08-01T03:55:59.646Z,0.90
2022-08-01T03:58:27.953Z,0.80
2022-08-01T04:00:56.328Z,1.10
2022-08-01T04:03:24.424Z,0.80
2022-08-01T04:05:51.703Z,1.30
2022-08-01T04:08:18.726Z,0.83
2022-08-01T04:10:45.803Z,1.20
2022-08-01T04:13:13.657Z,0.80
2022-08-01T04:15:40.744Z,0.93
2022-08-01T04:18:07.739Z,1.00
2022-08-01T04:20:34.628Z,1.17
2022-08-01T04:23:04.313Z,1.53
2022-08-01T04:25:37.907Z,2.03
2022-08-01T04:28:08.511Z,1.53
2022-08-01T04:30:38.660Z,2.00
2022-08-01T04:33:07.722Z,2.60
2022-08-01T04:36:03.912Z,1.60
2022-08-01T04:38:28.435Z,2.50
2022-08-01T04:40:55.803Z,1.60
2022-08-01T04:43:23.888Z,1.50
2022-08-01T04:45:52.399Z,0.97
2022-08-01T04:48:23.028Z,1.37
2022-08-01T04:50:50.588Z,1.40
2022-08-01T04:53:22.769Z,2.33
2022-08-01T04:55:50.199Z,1.23
2022-08-01T04:58:18.445Z,1.83
2022-08-01T05:00:46.731Z,1.20
2022-08-01T05:03:13.742Z,2.00
2022-08-01T05:05:40.750Z,1.70
2022-08-01T05:08:07.750Z,1.40
2022-08-01T05:10:35.237Z,1.07
2022-08-01T05:13:02.927Z,1.13
2022-08-01T05:15:29.872Z,1.00
2022-08-01T05:17:57.538Z,0.83
2022-08-01T05:20:24.512Z,0.90
2022-08-01T05:22:51.364Z,0.80
2022-08-01T05:25:20.101Z,1.17
2022-08-01T05:27:49.049Z,1.20
2022-08-01T05:30:18.351Z,1.40
2022-08-01T05:32:45.243Z,1.63
2022-08-01T05:35:12.309Z,2.37
2022-08-01T05:37:39.202Z,2.50
2022-08-01T05:40:06.865Z,2.90
2022-08-01T05:42:33.806Z,2.27
2022-08-01T05:45:00.779Z,2.37
2022-08-01T05:47:27.705Z,2.73
2022-08-01T05:49:54.596Z,1.37
2022-08-01T05:52:21.562Z,1.63
2022-08-01T05:54:48.467Z,1.80
2022-08-01T05:57:15.454Z,1.27
2022-08-01T05:59:42.409Z,2.00
2022-08-01T06:02:09.979Z,2.60
2022-08-01T06:04:37.373Z,2.00
2022-08-01T06:07:04.385Z,1.83
2022-08-01T06:09:31.887Z,2.07
2022-08-01T06:11:58.999Z,0.90
2022-08-01T06:14:25.934Z,1.60
2022-08-01T06:16:52.901Z,2.20
2022-08-01T06:19:20.070Z,1.47
2022-08-01T06:21:47.039Z,1.23
2022-08-01T06:24:14.005Z,1.30
2022-08-01T06:26:40.954Z,1.30
2022-08-01T06:29:07.845Z,1.07
2022-08-01T06:31:37.023Z,2.33
2022-08-01T06:34:04.013Z,1.20
2022-08-01T06:36:30.944Z,1.37
2022-08-01T06:38:57.878Z,1.40
2022-08-01T06:41:24.784Z,1.57
2022-08-01T06:43:51.784Z,3.37
2022-08-01T06:46:18.722Z,1.10
2022-08-01T06:48:45.579Z,1.40
2022-08-01T06:51:16.417Z,1.00
2022-08-01T06:53:43.938Z,0.80
2022-08-01T06:56:11.922Z,1.53
2022-08-01T06:58:39.078Z,1.40
2022-08-01T07:01:09.436Z,2.17
2022-08-01T07:03:53.904Z,1.23
2022-08-01T07:06:26.208Z,1.73
2022-08-01T07:08:54.045Z,1.80
2022-08-01T07:11:21.934Z,1.40
2022-08-01T07:13:48.948Z,0.97
2022-08-01T07:16:17.111Z,1.17
2022-08-01T07:18:44.576Z,0.97
2022-08-01T07:21:16.777Z,0.70
2022-08-01T07:23:59.214Z,0.80
2022-08-01T07:26:28.226Z,1.00
2022-08-01T07:28:55.332Z,1.30
2022-08-01T07:31:22.278Z,1.00
2022-08-01T07:33:49.544Z,1.23
2022-08-01T07:36:17.741Z,1.40
2022-08-01T07:38:45.332Z,1.00
2022-08-01T07:41:12.276Z,0.90
2022-08-01T07:43:39.493Z,1.20
2022-08-01T07:46:07.271Z,1.50
2022-08-01T07:48:34.696Z,1.13
2022-08-01T07:51:01.670Z,1.00
2022-08-01T07:53:28.577Z,1.17
2022-08-01T07:55:55.560Z,1.30
2022-08-01T07:58:22.429Z,0.90
2022-08-01T08:00:49.331Z,1.20
2022-08-01T08:03:16.217Z,1.60
2022-08-01T08:05:57.707Z,1.40
2022-08-01T08:08:27.022Z,1.10
2022-08-01T08:10:54.125Z,1.40
2022-08-01T08:13:21.897Z,1.70
2022-08-01T08:15:49.620Z,1.43
2022-08-01T08:18:16.763Z,2.20
2022-08-01T08:20:43.976Z,1.37
2022-08-01T08:23:42.193Z,2.10
2022-08-01T08:26:13.193Z,2.10
2022-08-01T08:28:40.850Z,2.00
2022-08-01T08:31:25.644Z,2.33
2022-08-01T08:33:56.221Z,2.70
2022-08-01T08:36:30.800Z,2.90
2022-08-01T08:39:01.893Z,2.97
2022-08-01T08:41:37.101Z,2.70
2022-08-01T08:44:10.434Z,4.40
2022-08-01T08:46:52.153Z,4.43
2022-08-01T08:49:24.345Z,2.70
2022-08-01T08:51:52.946Z,2.07
2022-08-01T08:54:22.953Z,2.40
2022-08-01T08:56:57.400Z,1.70
2022-08-01T08:59:27.466Z,1.40
2022-08-01T09:01:54.765Z,1.10
2022-08-01T09:04:26.137Z,0.97
2022-08-01T09:06:54.302Z,1.30
2022-08-01T09:09:21.217Z,1.23
2022-08-01T09:11:54.919Z,1.97
2022-08-01T09:14:36.129Z,2.03
2022-08-01T09:17:07.703Z,2.73
2022-08-01T09:19:41.443Z,1.70
2022-08-01T09:22:12.213Z,3.10
2022-08-01T09:24:40.965Z,6.20
2022-08-01T09:27:44.036Z,6.47
2022-08-01T09:30:23.733Z,6.87
2022-08-01T09:33:11.512Z,2.60
2022-08-01T09:35:57.163Z,1.73
2022-08-01T09:38:28.076Z,1.47
2022-08-01T09:41:01.503Z,2.40
2022-08-01T09:43:31.521Z,4.07
2022-08-01T09:46:00.087Z,1.33
2022-08-01T09:48:29.607Z,2.30
2022-08-01T09:51:04.041Z,1.30
2022-08-01T09:53:51.710Z,2.67
2022-08-01T09:56:22.509Z,1.47
2022-08-01T09:59:00.087Z,1.67
2022-08-01T10:01:36.972Z,1.90
2022-08-01T10:04:09.665Z,2.07
2022-08-01T10:06:38.916Z,1.70
2022-08-01T10:09:06.110Z,1.97
2022-08-01T10:11:36.429Z,3.67
2022-08-01T10:14:04.357Z,3.33
2022-08-01T10:16:32.997Z,1.50
2022-08-01T10:19:00.481Z,1.60
2022-08-01T10:21:56.294Z,1.30
2022-08-01T10:24:18.960Z,1.80
2022-08-01T10:26:48.830Z,1.47
2022-08-01T10:29:46.792Z,1.43
2022-08-01T10:32:10.195Z,1.33
2022-08-01T10:34:38.935Z,2.70
2022-08-01T10:37:13.731Z,1.27
2022-08-01T10:39:41.022Z,2.33
2022-08-01T10:42:15.937Z,3.63
2022-08-01T10:44:47.119Z,1.87
2022-08-01T10:47:22.963Z,1.40
2022-08-01T10:50:21.947Z,1.00
2022-08-01T10:53:16.770Z,1.00
2022-08-01T10:55:59.487Z,1.40
2022-08-01T10:58:42.179Z,1.47
2022-08-01T11:01:16.219Z,1.97
2022-08-01T11:03:57.579Z,1.70
2022-08-01T11:06:33.413Z,1.00
2022-08-01T11:09:04.073Z,1.40
2022-08-01T11:11:37.432Z,1.03
2022-08-01T11:14:10.477Z,1.87
2022-08-01T11:16:39.247Z,1.27
2022-08-01T11:19:11.735Z,1.70
2022-08-01T11:21:56.743Z,2.47
2022-08-01T11:24:49.633Z,1.50
2022-08-01T11:27:31.671Z,2.07
2022-08-01T11:30:12.827Z,5.33
2022-08-01T11:33:10.409Z,2.50
2022-08-01T11:35:59.059Z,1.80
2022-08-01T11:38:31.619Z,4.37
2022-08-01T11:41:37.108Z,2.37
2022-08-01T11:44:16.425Z,2.03
2022-08-01T11:47:09.326Z,1.90
2022-08-01T11:49:48.890Z,1.50
2022-08-01T11:52:28.763Z,1.40
2022-08-01T11:55:16.741Z,1.20
2022-08-01T11:57:43.945Z,1.87
2022-08-01T12:00:17.868Z,1.97
2022-08-01T12:02:46.945Z,1.57
2022-08-01T12:05:24.583Z,2.33
2022-08-01T12:07:52.923Z,2.97
2022-08-01T12:10:21.835Z,1.63
2022-08-01T12:13:03.080Z,1.00
2022-08-01T12:15:35.326Z,1.43
2022-08-01T12:18:08.909Z,1.93
2022-08-01T12:20:42.765Z,2.70
2022-08-01T12:23:17.546Z,1.90
2022-08-01T12:25:49.251Z,1.83
2022-08-01T12:28:16.190Z,1.27
2022-08-01T12:30:43.192Z,1.60
2022-08-01T12:33:17.700Z,1.07
2022-08-01T12:35:44.717Z,1.87
2022-08-01T12:38:25.907Z,1.10
2022-08-01T12:40:53.271Z,1.20
2022-08-01T12:43:29.445Z,1.00
2022-08-01T12:46:00.898Z,0.97
2022-08-01T12:48:29.207Z,1.07
2022-08-01T12:50:59.293Z,1.07
2022-08-01T12:53:40.905Z,1.00
2022-08-01T12:56:10.526Z,0.90
2022-08-01T12:58:37.893Z,0.90
2022-08-01T13:01:11.537Z,0.80
2022-08-01T13:03:39.326Z,1.87
2022-08-01T13:06:17.435Z,1.63
2022-08-01T13:08:46.001Z,2.20
2022-08-01T13:11:15.380Z,1.70
2022-08-01T13:13:50.678Z,1.47
2022-08-01T13:16:30.627Z,0.90
2022-08-01T13:19:06.322Z,1.07
2022-08-01T13:21:52.070Z,1.53
2022-08-01T13:24:28.614Z,1.00
2022-08-01T13:27:01.797Z,1.10
2022-08-01T13:29:42.394Z,0.90
2022-08-01T13:32:27.756Z,2.27
2022-08-01T13:35:08.991Z,1.23
2022-08-01T13:37:38.909Z,1.90
2022-08-01T13:40:07.784Z,2.17
2022-08-01T13:42:34.816Z,1.70
2022-08-01T13:45:02.929Z,1.07
2022-08-01T13:47:32.074Z,1.63
2022-08-01T13:50:02.956Z,1.50
2022-08-01T13:52:31.667Z,2.80
2022-08-01T13:54:59.213Z,1.20
2022-08-01T13:57:26.256Z,0.90
2022-08-01T14:00:06.715Z,1.50
2022-08-01T14:02:33.736Z,1.20
2022-08-01T14:05:00.697Z,1.20
2022-08-01T14:07:27.802Z,1.40
2022-08-01T14:10:18.070Z,1.13
2022-08-01T14:12:42.811Z,2.50
2022-08-01T14:15:12.818Z,1.00
2022-08-01T14:17:47.774Z,1.10
2022-08-01T14:20:15.617Z,1.37
2022-08-01T14:22:42.598Z,0.70
2022-08-01T14:25:09.858Z,1.10
2022-08-01T14:27:37.207Z,1.10
2022-08-01T14:30:05.590Z,1.40
2022-08-01T14:32:34.278Z,1.43
2022-08-01T14:35:06.336Z,1.10
2022-08-01T14:40:52.184Z,1.00
2022-08-01T14:43:26.046Z,0.90
2022-08-01T14:45:55.628Z,0.67
2022-08-01T14:48:22.535Z,0.60
2022-08-01T14:50:49.664Z,0.80
2022-08-01T14:53:16.543Z,0.77
2022-08-01T14:55:43.998Z,0.70
2022-08-01T14:58:10.904Z,0.80
2022-08-01T15:00:38.065Z,1.83
2022-08-01T15:03:05.118Z,1.23
2022-08-01T15:05:33.754Z,0.70
2022-08-01T15:08:00.737Z,0.70
2022-08-01T15:10:28.168Z,0.70
2022-08-01T15:12:55.250Z,0.70
2022-08-01T15:15:22.217Z,0.77
2022-08-01T15:17:49.100Z,0.83
2022-08-01T15:20:16.214Z,0.60
2022-08-01T15:22:43.104Z,0.80
2022-08-01T15:25:10.242Z,1.00
2022-08-01T15:27:37.503Z,0.70
2022-08-01T15:30:05.019Z,1.13
2022-08-01T15:32:32.002Z,0.77
2022-08-01T15:34:58.936Z,0.80
2022-08-01T15:37:25.898Z,1.63
2022-08-01T15:39:56.627Z,1.10
2022-08-01T15:42:25.667Z,0.70
2022-08-01T15:44:54.818Z,1.17
2022-08-01T15:47:22.700Z,0.70
2022-08-01T15:49:52.763Z,0.97
2022-08-01T15:52:21.537Z,0.80
2022-08-01T15:54:50.415Z,1.00
2022-08-01T15:57:17.901Z,0.80
2022-08-01T15:59:44.908Z,0.90
2022-08-01T16:02:12.196Z,1.73
2022-08-01T16:04:39.252Z,0.80
2022-08-01T16:07:06.641Z,0.80
2022-08-01T16:09:33.700Z,1.23
2022-08-01T16:12:00.735Z,0.87
2022-08-01T16:14:27.807Z,1.03
2022-08-01T16:16:54.778Z,1.00
2022-08-01T16:19:21.987Z,0.80
2022-08-01T16:21:49.049Z,1.00
2022-08-01T16:24:16.052Z,1.00
2022-08-01T16:26:43.177Z,1.40
2022-08-01T16:29:10.371Z,1.37
2022-08-01T16:31:41.997Z,1.00
2022-08-01T16:34:24.068Z,1.10
2022-08-01T16:36:52.765Z,0.83
2022-08-01T16:39:23.020Z,1.83
2022-08-01T16:41:55.285Z,1.40
2022-08-01T16:44:33.233Z,0.80
2022-08-01T16:49:58.232Z,0.90
2022-08-01T16:52:28.616Z,1.30
2022-08-01T16:54:57.961Z,1.30
2022-08-01T16:57:25.007Z,1.17
2022-08-01T16:59:51.864Z,3.10
2022-08-01T17:02:18.870Z,2.37
2022-08-01T17:04:45.803Z,1.30
2022-08-01T17:07:12.727Z,1.30
2022-08-01T17:09:43.353Z,1.00
2022-08-01T17:12:11.836Z,1.50
2022-08-01T17:14:39.953Z,1.30
2022-08-01T17:17:07.734Z,1.00
2022-08-01T17:19:34.913Z,1.00
2022-08-01T17:22:01.854Z,0.90
2022-08-01T17:24:28.823Z,0.90
2022-08-01T17:26:55.784Z,1.07
2022-08-01T17:29:22.768Z,2.13
2022-08-01T17:31:49.727Z,1.07
2022-08-01T17:34:16.753Z,0.90
2022-08-01T17:36:43.707Z,0.90
2022-08-01T17:39:12.408Z,1.50
2022-08-01T17:41:40.678Z,1.07
2022-08-01T17:44:07.945Z,1.00
2022-08-01T17:46:35.353Z,0.80
2022-08-01T17:49:02.337Z,1.00
2022-08-01T17:51:30.418Z,0.90
2022-08-01T17:53:58.073Z,1.23
2022-08-01T17:56:27.069Z,0.83
2022-08-01T17:58:54.706Z,0.80
2022-08-01T18:01:26.524Z,1.00
2022-08-01T18:03:54.791Z,1.07
2022-08-01T18:06:23.524Z,1.20
2022-08-01T18:08:53.062Z,0.60
2022-08-01T18:11:39.261Z,0.80
2022-08-01T18:14:06.478Z,1.10
2022-08-01T18:16:33.517Z,0.90
2022-08-01T18:19:00.545Z,0.60
2022-08-01T18:21:27.541Z,0.90
2022-08-01T18:23:54.451Z,0.70
2022-08-01T18:26:21.934Z,0.83
2022-08-01T18:28:49.616Z,1.10
2022-08-01T18:31:17.809Z,0.87
2022-08-01T18:33:45.416Z,0.80
2022-08-01T18:36:23.175Z,1.47
2022-08-01T18:39:01.908Z,1.03
2022-08-01T18:41:32.155Z,1.23
2022-08-01T18:44:03.928Z,2.20
2022-08-01T18:46:36.457Z,1.10
2022-08-01T18:49:03.476Z,0.93
2022-08-01T18:51:30.434Z,1.00
2022-08-01T18:53:57.842Z,1.30
2022-08-01T18:56:24.927Z,1.07
2022-08-01T18:58:53.822Z,1.17
2022-08-01T19:01:21.333Z,1.53
2022-08-01T19:03:48.367Z,1.50
2022-08-01T19:06:15.575Z,0.90
2022-08-01T19:08:43.370Z,0.90
2022-08-01T19:11:10.414Z,1.10
2022-08-01T19:13:38.580Z,1.40
2022-08-01T19:16:06.099Z,1.30
2022-08-01T19:18:33.809Z,0.70
2022-08-01T19:21:06.983Z,0.80
2022-08-01T19:23:53.566Z,0.70
2022-08-01T19:26:23.642Z,1.00
2022-08-01T19:28:57.319Z,1.03
2022-08-01T19:31:27.841Z,0.80
2022-08-01T19:33:56.502Z,1.40
2022-08-01T19:36:23.828Z,0.87
2022-08-01T19:38:50.919Z,0.80
2022-08-01T19:41:18.973Z,0.70
2022-08-01T19:43:47.851Z,0.60
2022-08-01T19:46:17.906Z,1.10
2022-08-01T19:48:50.058Z,1.00
2022-08-01T19:51:20.994Z,0.90
2022-08-01T19:53:55.283Z,0.70
2022-08-01T19:56:25.746Z,0.60
2022-08-01T19:59:00.027Z,0.80
2022-08-01T20:01:27.829Z,1.00
2022-08-01T20:03:55.993Z,0.60
2022-08-01T20:06:26.266Z,0.80
2022-08-01T20:08:54.767Z,1.00
2022-08-01T20:11:23.396Z,0.70
2022-08-01T20:13:51.432Z,1.30
2022-08-01T20:16:18.682Z,1.20
2022-08-01T20:18:45.574Z,0.83
2022-08-01T20:21:13.443Z,0.70
2022-08-01T20:23:41.898Z,0.90
2022-08-01T20:26:09.699Z,0.60
2022-08-01T20:28:41.859Z,0.70
2022-08-01T20:31:09.842Z,0.80
2022-08-01T20:33:42.604Z,0.80
2022-08-01T20:36:12.291Z,1.27
2022-08-01T20:38:57.378Z,0.93
2022-08-01T20:41:25.828Z,0.90
2022-08-01T20:43:57.103Z,0.70
2022-08-01T20:46:28.622Z,0.80
2022-08-01T20:48:58.306Z,0.97
2022-08-01T20:51:26.807Z,0.80
2022-08-01T20:53:54.987Z,0.70
2022-08-01T20:56:38.180Z,0.60
2022-08-01T20:59:06.214Z,0.80
2022-08-01T21:01:47.880Z,0.77
2022-08-01T21:04:27.537Z,0.70
2022-08-01T21:07:26.719Z,0.80
2022-08-01T21:10:01.537Z,0.80
2022-08-01T21:12:44.733Z,0.70
2022-08-01T21:15:25.909Z,0.80
2022-08-01T21:18:01.917Z,0.90
2022-08-01T21:20:32.370Z,0.77
2022-08-01T21:23:10.033Z,0.83
2022-08-01T21:25:37.128Z,0.60
2022-08-01T21:28:05.357Z,0.90
2022-08-01T21:30:36.375Z,0.60
2022-08-01T21:33:04.806Z,0.77
2022-08-01T21:35:32.887Z,0.80
2022-08-01T21:38:01.899Z,0.70
2022-08-01T21:40:32.549Z,0.60
2022-08-01T21:43:01.441Z,0.60
2022-08-01T21:45:29.435Z,0.70
2022-08-01T21:47:58.000Z,0.70
2022-08-01T21:50:25.737Z,0.60
2022-08-01T21:53:31.883Z,0.60
2022-08-01T21:56:14.601Z,0.70
2022-08-01T21:59:24.098Z,0.70
2022-08-01T22:02:10.447Z,0.60
2022-08-01T22:04:40.526Z,0.63
2022-08-01T22:07:11.281Z,0.57
2022-08-01T22:09:39.671Z,0.70
2022-08-01T22:12:08.277Z,0.70
2022-08-01T22:14:40.595Z,0.90
2022-08-01T22:17:08.805Z,0.57
2022-08-01T22:19:44.828Z,0.60
2022-08-01T22:22:51.266Z,0.60
2022-08-01T22:25:01.973Z,0.60
2022-08-01T22:28:08.624Z,0.60
2022-08-01T22:30:18.233Z,0.80
2022-08-01T22:33:07.796Z,0.57
2022-08-01T22:35:35.418Z,0.70
2022-08-01T22:38:02.387Z,0.80
2022-08-01T22:40:34.271Z,0.70
2022-08-01T22:43:06.723Z,0.53
2022-08-01T22:46:00.105Z,0.70
2022-08-01T22:48:36.378Z,0.70
2022-08-01T22:51:09.207Z,0.70
2022-08-01T22:54:11.547Z,0.93
2022-08-01T22:56:44.157Z,0.80
2022-08-01T22:59:20.626Z,0.60
2022-08-01T23:01:51.618Z,0.70
2022-08-01T23:04:33.526Z,0.70
2022-08-01T23:07:05.592Z,0.70
2022-08-01T23:09:53.641Z,0.70
2022-08-01T23:12:24.721Z,0.93
2022-08-01T23:14:54.772Z,1.10
2022-08-01T23:17:26.683Z,1.07
2022-08-01T23:20:02.775Z,0.87
2022-08-01T23:22:32.188Z,0.80
2022-08-01T23:25:03.864Z,0.73
2022-08-01T23:28:04.225Z,1.07
2022-08-01T23:30:24.606Z,1.10
2022-08-01T23:32:51.509Z,1.03
2022-08-01T23:35:18.386Z,0.80
2022-08-01T23:37:45.392Z,0.90
2022-08-01T23:40:12.714Z,0.70
2022-08-01T23:42:39.690Z,1.23
2022-08-01T23:45:07.362Z,0.97
2022-08-01T23:47:34.270Z,0.80
2022-08-01T23:50:01.243Z,1.10
2022-08-01T23:52:32.291Z,0.90
2022-08-01T23:55:06.396Z,1.27
2022-08-01T23:57:42.259Z,0.70
